Nearby METAR Reports

CWGD - Goderich (autob), Ontario, Canada
Distance from station: SW 47km
Updated: 08/23/2017 11:00am

 Wind from NW
Wind: NW 26 km/h, Gust: 35 km/h
Temperature: 18°C
Dew Point: 13°C
Humidity: 73%
2017/08/23 15:00 CWGD 231500Z AUTO 31014G19KT 18/13 RMK AO1 PK WND 31021/1444 SLP119 T01830134 51009
CWLS - Mount Forest(Mar, Ontario, Canada
Distance from station: ESE 53km
Updated: 08/23/2017 11:00am

 Wind from W
Wind: W 17 km/h, Gust: 30 km/h
Temperature: 17°C
Dew Point: 11°C
Humidity: 68%
2017/08/23 15:00 CWLS 231500Z AUTO 27009G16KT 17/11 RMK AO1 SLP113 T01720112 51005
 
CYVV - Wiarton Air, Ontario, Canada
Distance from station: NNE 75km
Updated: 08/23/2017 11:00am
Mostly cloudy
Mostly cloudy
 Wind from W
Wind: W 20 km/h, Gust: 39 km/h
Temperature: 18°C
Dew Point: 12°C
Humidity: 68%
Barometer: 1010.5 hPa
Clouds: Mostly cloudy
Visibility: 24 km
Cloud details: Few Clouds 305 m
Few Clouds 610 m
Mostly cloudy 914 m
2017/08/23 15:00 CYVV 231500Z 28011G21KT 260V340 15SM FEW010 FEW020 BKN030TCU 18/12 A2984 RMK SF1SC2TCU4 SF TR SLP106 DENSITY ALT 1400FT
CZEL - Elora Rcs, Ontario, Canada
Distance from station: ESE 93km
Updated: 08/23/2017 11:00am

 Wind from WNW
Wind: WNW 20 km/h, Gust: 31 km/h
Temperature: 15°C
Dew Point: 12°C
Humidity: 82%
2017/08/23 15:00 CZEL 231500Z AUTO 30011G17KT 15/12 RMK AO1 4PAST HR 2002 PK WND 29017/1451 SLP117 P0005 T01520124 50014
 
CWCO - Collingwood (aut, Ontario, Canada
Distance from station: ENE 104km
Updated: 08/23/2017 11:00am

 Wind from NW
Wind: NW 22 km/h, Gust: 39 km/h
Temperature: 18°C
Dew Point: 13°C
Humidity: 73%
2017/08/23 15:00 CWCO 231500Z AUTO 32012G21KT 18/13 RMK AO1 PK WND 31026/1421 SLP093 T01750126 53011
CYKF - Waterloo Well, Ontario, Canada
Distance from station: SE 107km
Updated: 08/23/2017 11:00am
Partly cloudy
Partly cloudy
 Wind from W
Wind: W 26 km/h, Gust: 39 km/h
Temperature: 20°C
Dew Point: 13°C
Humidity: 64%
Barometer: 1011.5 hPa
Clouds: Partly cloudy
Visibility: 14 km
Cloud details: Few Clouds 914 m
Partly cloudy 1128 m
2017/08/23 15:00 CYKF 231500Z AUTO 28014G21KT 9SM FEW030 SCT037 20/13 A2987 RMK SLP114 DENSITY ALT 1800FT
 
KP58 - Port Hope, Michigan, USA
Distance from station: W 114km
Updated: 08/23/2017 10:51am

 Wind from NW
Wind: NW 19 km/h, Gust: 33 km/h
Temperature: 18°C
Dew Point: 13°C
Humidity: 73%
Barometer: 1012.5 hPa
2017/08/23 14:51 KP58 231451Z AUTO 32010G18KT 18/13 A2990 RMK AO1 SLP121 T01830128 51013
CYBN - Borden, Ontario, Canada
Distance from station: E 118km
Updated: 08/23/2017 11:00am
Mostly cloudy
Mostly cloudy
 Wind from W
Wind: W 26 km/h, Gust: 39 km/h
Temperature: 20°C
Dew Point: 12°C
Humidity: 60%
Barometer: 1010.2 hPa
Clouds: Mostly cloudy
Visibility: 14 km
Cloud details: Partly cloudy 1097 m
Mostly cloudy 1433 m
Mostly cloudy 2286 m
2017/08/23 15:00 CYBN 231500Z AUTO 28014G21KT 9SM SCT036 BKN047 BKN075 20/12 A2983 RMK SLP101
 
CYXU - London Airport, Ontario, Canada
Distance from station: S 123km
Updated: 08/23/2017 11:00am
Mostly cloudy
Mostly cloudy
 Wind from WNW
Wind: WNW 22 km/h, Gust: 33 km/h
Temperature: 19°C
Dew Point: 13°C
Humidity: 68%
Barometer: 1012.5 hPa
Clouds: Mostly cloudy
Visibility: 24 km
Cloud details: Mostly cloudy 975 m
2017/08/23 15:00 CYXU 231500Z 29012G18KT 15SM BKN032TCU 19/13 A2990 RMK TCU6 SLP127 DENSITY ALT 1700FT
CXET - Egbert Cs, Ontario, Canada
Distance from station: E 128km
Updated: 08/23/2017 11:00am

 Wind from W
Wind: W 20 km/h, Gust: 37 km/h
Temperature: 19°C
Dew Point: 10°C
Humidity: 56%
2017/08/23 15:00 CXET 231500Z AUTO 28011G20KT 19/10 RMK AO1 PK WND 29021/1437 SLP097 T01900104 51003
 
CWMZ - Western Isl (map, Ontario, Canada
Distance from station: NE 129km
Updated: 08/23/2017 10:00am
NOT Current

 Wind from WNW
Wind: WNW 50 km/h
Temperature: 17°C
Dew Point: 12°C
Humidity: 73%
2017/08/23 14:00 CWMZ 231400Z AUTO 30027KT 17/12 RMK AO1 PK WND 30031/1337 SLP084 T01670115 53009
KBAX - Bad Axe, Michigan, USA
Distance from station: WSW 133km
Updated: 08/23/2017 11:14am
Mostly cloudy
Mostly cloudy
 Wind from NW
Wind: NW 22 km/h, Gust: 31 km/h
Temperature: 19°C
Dew Point: 12°C
Humidity: 64%
Barometer: 1013.2 hPa
Clouds: Mostly cloudy
Visibility: 16 km
Cloud details: Mostly cloudy 762 m
Mostly cloudy 914 m
Mostly cloudy 1158 m
2017/08/23 15:14 KBAX 231514Z AUTO 32012G17KT 10SM BKN025 BKN030 BKN038 19/12 A2992 RMK AO2 T01890116
 
CWWX - Cove Island (map, Ontario, Canada
Distance from station: NNW 137km
Updated: 08/23/2017 11:00am

 Wind from NNW
Wind: NNW 33 km/h
Temperature: 17°C
Dew Point: 12°C
Humidity: 73%
2017/08/23 15:00 CWWX 231500Z AUTO 34018KT 17/12 RMK AO1 PK WND 34022/1403 SLP099 T01650124 51014
CYZR - Sarnia Airport, Ontario, Canada
Distance from station: SSW 144km
Updated: 08/23/2017 11:00am
Few Clouds
Few Clouds
 Wind from NW
Wind: NW 26 km/h
Temperature: 20°C
Dew Point: 13°C
Humidity: 64%
Barometer: 1012.9 hPa
Clouds: Few Clouds
Visibility: 14 km
Cloud details: Few Clouds 975 m
2017/08/23 15:00 CYZR 231500Z AUTO 32014KT 270V340 9SM FEW032 20/13 A2991 RMK SLP130 DENSITY ALT 1300FT
 
CXHM - Hamilton Rbg Cs, Ontario, Canada
Distance from station: SE 150km
Updated: 08/23/2017 11:00am

 Wind from W
Wind: W 11 km/h
Temperature: 22°C
Dew Point: 14°C
Humidity: 61%
2017/08/23 15:00 CXHM 231500Z AUTO 26006KT 22/14 RMK AO1 SLP103 T02160144 50000
CYYZ - Toronto/Pearson, Ontario, Canada
Distance from station: ESE 150km
Updated: 08/23/2017 11:00am
Mostly cloudy
Mostly cloudy
 Wind from W
Wind: W 35 km/h
Temperature: 21°C
Dew Point: 13°C
Humidity: 60%
Barometer: 1010.5 hPa
Clouds: Mostly cloudy
Visibility: 24 km
Cloud details: Mostly cloudy 1250 m
2017/08/23 15:00 CYYZ 231500Z 26019KT 15SM BKN041 21/13 A2984 RMK CU5 SLP107 DENSITY ALT 1600FT
 
CXBI - Barrie-Oro, Ontario, Canada
Distance from station: ENE 151km
Updated: 08/23/2017 11:00am

 Wind from WNW
Wind: WNW 30 km/h, Gust: 57 km/h
Temperature: 15°C
Dew Point: 12°C
Humidity: 82%
2017/08/23 15:00 CXBI 231500Z AUTO 30016G31KT 15/12 RMK AO1 PK WND 27031/1454 SLP104 T01470122 53008
CXDI - Delhi Cs (aut), Ontario, Canada
Distance from station: SSE 154km
Updated: 08/23/2017 11:00am

 Wind from W
Wind: W 11 km/h
Temperature: 21°C
Dew Point: 12°C
Humidity: 57%
2017/08/23 15:00 CXDI 231500Z AUTO 28006KT 21/12 RMK AO1 SLP118 T02060117 50002
 
CWWB - Burlington Piers, Ontario, Canada
Distance from station: SE 157km
Updated: 08/23/2017 11:00am

 Wind from SW
Wind: SW 15 km/h
Temperature: 21°C
Dew Point: 12°C
Humidity: 57%
2017/08/23 15:00 CWWB 231500Z AUTO 23008KT 21/12 RMK AO1 SLP111 T02060122 50001
CYHM - Hamilton Airport, Ontario, Canada
Distance from station: SE 157km
Updated: 08/23/2017 11:00am
Partly cloudy
Partly cloudy
 Wind from WSW
Wind: WSW 19 km/h, Gust: 31 km/h
Temperature: 20°C
Dew Point: 14°C
Humidity: 69%
Barometer: 1011.9 hPa
Clouds: Partly cloudy
Visibility: 24 km
Cloud details: Few Clouds 853 m
Partly cloudy 1219 m
2017/08/23 15:00 CYHM 231500Z 24010G17KT 15SM FEW028 SCT040 20/14 A2988 RMK CU2SC1 SLP120 DENSITY ALT 1700FT